Time;durP1;ratioP1;P1;durP2;ratioP2;P2;SDS_P1;SDS_P2;PMS_P1;PMS_P2;Temp;Humidity;BMP_temperature;BMP_pressure;BME280_temperature;BME280_humidity;BME280_pressure;Samples;Min_cycle;Max_cycle;Signal;HPM_P1;HPM_P2
2021/11/01 00:01:08;;;;;;;0.80;0.70;;;15.60;83.30;;;;;;5022980;28;20506;-42
2021/11/01 00:03:35;;;;;;;0.90;0.37;;;15.60;83.30;;;;;;5025922;28;20444;-42
2021/11/01 00:06:02;;;;;;;0.70;0.50;;;15.60;83.40;;;;;;5028089;28;20495;-42
2021/11/01 00:08:30;;;;;;;0.40;0.40;;;15.60;83.20;;;;;;5027261;28;20476;-43
2021/11/01 00:10:56;;;;;;;0.43;0.40;;;15.50;83.50;;;;;;5025580;28;20454;-43
2021/11/01 00:13:23;;;;;;;0.73;0.50;;;15.50;83.50;;;;;;5024109;28;20466;-44
2021/11/01 00:15:51;;;;;;;0.60;0.53;;;15.50;83.70;;;;;;5026751;28;20455;-44
2021/11/01 00:18:18;;;;;;;0.40;0.40;;;15.50;83.70;;;;;;5026772;28;20455;-44
2021/11/01 00:20:44;;;;;;;0.67;0.60;;;15.50;83.90;;;;;;5027216;28;20948;-44
2021/11/01 00:23:11;;;;;;;1.07;0.30;;;15.50;83.80;;;;;;5027083;28;20443;-44
2021/11/01 00:25:38;;;;;;;0.73;0.30;;;15.50;84.00;;;;;;5027385;28;21042;-42
2021/11/01 00:28:05;;;;;;;1.40;0.70;;;15.40;83.80;;;;;;5026911;28;22060;-42
2021/11/01 00:30:32;;;;;;;1.37;0.70;;;15.40;83.80;;;;;;5030458;28;20483;-43
2021/11/01 00:32:59;;;;;;;1.03;0.87;;;15.40;83.70;;;;;;5029374;28;20447;-43
2021/11/01 00:35:25;;;;;;;2.30;0.60;;;15.40;83.60;;;;;;5035703;28;20537;-43
2021/11/01 00:37:52;;;;;;;1.30;0.47;;;15.40;83.10;;;;;;5026582;28;21008;-43
2021/11/01 00:40:19;;;;;;;0.70;0.50;;;15.30;81.70;;;;;;5026625;28;20499;-43
2021/11/01 00:42:46;;;;;;;1.63;0.40;;;15.30;81.70;;;;;;5026363;28;20459;-44
2021/11/01 00:45:13;;;;;;;0.77;0.30;;;15.20;81.70;;;;;;5028373;28;21239;-44
2021/11/01 00:47:39;;;;;;;1.90;0.50;;;15.20;81.80;;;;;;5008481;28;20452;-43
2021/11/01 00:50:07;;;;;;;8.33;0.50;;;15.20;81.90;;;;;;5026829;28;20456;-43
2021/11/01 00:52:34;;;;;;;1.07;0.33;;;15.20;82.30;;;;;;5023254;28;20474;-43
2021/11/01 00:55:03;;;;;;;1.03;0.30;;;15.20;82.60;;;;;;5025381;28;20443;-43
2021/11/01 00:57:30;;;;;;;1.27;0.60;;;15.10;82.80;;;;;;5036897;28;20574;-43
2021/11/01 00:59:59;;;;;;;1.03;0.40;;;15.10;82.70;;;;;;5021757;28;20487;-43
2021/11/01 01:02:29;;;;;;;1.90;0.53;;;15.10;82.70;;;;;;5038198;28;21713;-43
2021/11/01 01:04:56;;;;;;;2.57;0.67;;;15.00;82.90;;;;;;5042876;28;20446;-43
2021/11/01 01:07:27;;;;;;;2.20;0.60;;;15.00;82.70;;;;;;5034189;28;20470;-42
2021/11/01 01:09:54;;;;;;;0.60;0.50;;;15.00;82.60;;;;;;5037809;28;20523;-43
2021/11/01 01:12:21;;;;;;;1.80;0.50;;;14.90;81.90;;;;;;5022359;28;20502;-43
2021/11/01 01:14:57;;;;;;;0.60;0.50;;;14.90;81.80;;;;;;5023131;28;20541;-43
2021/11/01 01:17:26;;;;;;;4.37;1.20;;;14.80;81.80;;;;;;5040277;28;20455;-43
2021/11/01 01:20:10;;;;;;;1.23;0.83;;;14.90;81.20;;;;;;5037546;28;20515;-43
2021/11/01 01:22:37;;;;;;;1.00;0.70;;;14.80;81.70;;;;;;5038833;28;20546;-43
2021/11/01 01:27:46;;;;;;;0.90;0.50;;;14.80;81.30;;;;;;5033301;28;20474;-42
2021/11/01 01:30:14;;;;;;;2.90;0.70;;;14.70;80.90;;;;;;5010877;28;20455;-43
2021/11/01 01:32:43;;;;;;;0.87;0.50;;;14.60;79.70;;;;;;5027345;28;20460;-43
2021/11/01 01:35:11;;;;;;;5.70;1.00;;;14.60;78.10;;;;;;5024760;28;20462;-43
2021/11/01 01:37:38;;;;;;;2.30;1.17;;;14.50;78.80;;;;;;5039973;28;20551;-42
2021/11/01 01:40:06;;;;;;;5.60;1.00;;;14.40;79.00;;;;;;5038290;28;20582;-41
2021/11/01 01:42:35;;;;;;;3.00;1.00;;;14.30;79.20;;;;;;5007468;28;20458;-41
2021/11/01 01:45:08;;;;;;;1.20;1.07;;;14.30;79.40;;;;;;5027416;28;20512;-41
2021/11/01 01:47:35;;;;;;;3.63;1.20;;;14.30;79.60;;;;;;5027322;28;20465;-41
2021/11/01 01:50:04;;;;;;;5.50;1.00;;;14.20;79.70;;;;;;5008811;28;20489;-41
2021/11/01 01:52:31;;;;;;;2.27;0.93;;;14.20;80.00;;;;;;5008817;28;20463;-41
2021/11/01 01:54:58;;;;;;;1.33;0.60;;;14.20;79.70;;;;;;5027151;28;21859;-41
2021/11/01 01:57:25;;;;;;;5.50;1.30;;;14.10;80.00;;;;;;5026640;28;20851;-41
2021/11/01 01:59:51;;;;;;;2.77;0.83;;;14.00;80.10;;;;;;5022318;28;20893;-41
2021/11/01 02:02:18;;;;;;;3.73;0.90;;;14.00;80.30;;;;;;5003567;28;20463;-41
2021/11/01 02:04:45;;;;;;;2.33;1.13;;;13.90;80.60;;;;;;5023811;28;20456;-41
2021/11/01 02:07:29;;;;;;;6.20;0.80;;;13.90;81.00;;;;;;5027788;28;20462;-41
2021/11/01 02:10:10;;;;;;;2.10;1.20;;;13.80;81.50;;;;;;5031085;28;20475;-41
2021/11/01 02:12:44;;;;;;;2.53;0.83;;;13.80;82.00;;;;;;5008273;28;20944;-41
2021/11/01 02:15:21;;;;;;;4.63;1.47;;;13.70;82.60;;;;;;5019443;28;20461;-42
2021/11/01 02:17:52;;;;;;;1.43;0.93;;;13.70;83.10;;;;;;5027977;28;21018;-42
2021/11/01 02:20:53;;;;;;;3.63;0.97;;;13.70;83.40;;;;;;5028095;28;20863;-42
2021/11/01 02:23:27;;;;;;;5.97;1.87;;;13.60;83.60;;;;;;5019740;28;20677;-42
2021/11/01 02:25:57;;;;;;;4.83;1.70;;;13.60;84.10;;;;;;5007552;28;20459;-41
2021/11/01 02:28:36;;;;;;;3.47;1.60;;;13.50;84.20;;;;;;5028476;28;20483;-41
2021/11/01 02:31:05;;;;;;;3.50;1.63;;;13.50;84.60;;;;;;5026491;28;20470;-41
2021/11/01 02:33:33;;;;;;;10.00;2.60;;;13.40;84.70;;;;;;5008783;28;20517;-41
2021/11/01 02:36:00;;;;;;;4.90;2.40;;;13.40;84.80;;;;;;5030493;28;20468;-41
2021/11/01 02:38:33;;;;;;;6.40;2.40;;;13.40;85.00;;;;;;5013383;28;20517;-41
2021/11/01 02:41:25;;;;;;;2.20;1.10;;;13.40;85.40;;;;;;5031307;28;21023;-41
2021/11/01 02:44:04;;;;;;;5.73;1.20;;;13.30;85.50;;;;;;5004288;28;20463;-41
2021/11/01 02:46:35;;;;;;;4.73;2.00;;;13.30;85.80;;;;;;5023829;28;20460;-41
2021/11/01 02:49:03;;;;;;;4.60;1.43;;;13.20;85.90;;;;;;5029379;28;21593;-41
2021/11/01 02:51:30;;;;;;;3.90;0.97;;;13.20;86.10;;;;;;5023095;28;20459;-41
2021/11/01 02:53:59;;;;;;;3.40;1.13;;;13.20;86.30;;;;;;5031212;28;20880;-41
2021/11/01 02:56:26;;;;;;;5.50;0.97;;;13.20;86.40;;;;;;5027912;28;20967;-41
2021/11/01 02:58:54;;;;;;;5.23;1.17;;;13.10;86.50;;;;;;5010262;28;20471;-41
2021/11/01 03:01:22;;;;;;;2.73;1.40;;;13.10;86.60;;;;;;5027316;28;20589;-41
2021/11/01 03:03:50;;;;;;;8.00;1.70;;;13.10;86.80;;;;;;5026748;28;20469;-41
2021/11/01 03:06:23;;;;;;;4.60;2.10;;;13.10;86.90;;;;;;5024292;28;20475;-44
2021/11/01 03:08:52;;;;;;;7.47;1.33;;;13.00;86.90;;;;;;5027329;28;20709;-44
2021/11/01 03:11:20;;;;;;;4.77;3.43;;;13.00;87.00;;;;;;5007436;28;20503;-43
2021/11/01 03:13:48;;;;;;;7.73;3.33;;;13.00;87.10;;;;;;5012469;28;20451;-44
2021/11/01 03:16:16;;;;;;;6.87;2.50;;;13.00;87.10;;;;;;5026116;28;20469;-44
2021/11/01 03:18:50;;;;;;;4.00;1.17;;;13.00;87.20;;;;;;5007813;28;20553;-43
2021/11/01 03:21:18;;;;;;;1.20;1.10;;;12.90;87.40;;;;;;5012204;28;20494;-41
2021/11/01 03:23:48;;;;;;;3.70;1.33;;;12.90;87.70;;;;;;5027702;28;20518;-41
2021/11/01 03:26:20;;;;;;;3.77;1.80;;;12.90;87.70;;;;;;5029193;28;20471;-41
2021/11/01 03:28:51;;;;;;;2.80;0.90;;;12.90;87.80;;;;;;5028074;28;20483;-41
2021/11/01 03:31:22;;;;;;;3.93;1.57;;;12.90;87.90;;;;;;5026483;28;20534;-41
2021/11/01 03:33:51;;;;;;;1.83;0.67;;;12.90;88.00;;;;;;5029393;28;20464;-42
2021/11/01 03:36:19;;;;;;;3.93;0.90;;;12.90;88.10;;;;;;5024567;28;20467;-42
2021/11/01 03:38:47;;;;;;;4.10;1.10;;;12.80;88.20;;;;;;5025953;28;20467;-42
2021/11/01 03:41:16;;;;;;;2.17;1.00;;;12.80;88.30;;;;;;5028160;28;20540;-42
2021/11/01 03:44:01;;;;;;;5.80;1.03;;;12.80;88.40;;;;;;5021176;28;20464;-42
2021/11/01 03:47:14;;;;;;;1.73;0.70;;;12.80;88.50;;;;;;5012010;28;20462;-41
2021/11/01 03:49:15;;;;;;;2.53;1.13;;;12.80;88.60;;;;;;5017692;28;20472;-41
2021/11/01 03:51:52;;;;;;;2.43;1.37;;;12.80;88.70;;;;;;5028559;28;20838;-41
2021/11/01 03:54:21;;;;;;;5.37;1.90;;;12.80;89.00;;;;;;5029787;28;20571;-44
2021/11/01 03:56:51;;;;;;;2.77;2.20;;;12.80;89.10;;;;;;5027427;28;20563;-43
2021/11/01 03:59:18;;;;;;;5.60;1.27;;;12.80;89.20;;;;;;5026600;28;20461;-43
2021/11/01 04:01:46;;;;;;;2.20;1.00;;;12.80;88.90;;;;;;5027785;28;20570;-43
2021/11/01 04:04:15;;;;;;;2.83;1.37;;;12.80;89.10;;;;;;5019555;28;20451;-43
2021/11/01 04:06:42;;;;;;;4.10;1.53;;;12.70;89.30;;;;;;5028118;28;20455;-43
2021/11/01 04:09:15;;;;;;;4.90;1.40;;;12.70;89.40;;;;;;5032114;28;21013;-43
2021/11/01 04:11:44;;;;;;;2.90;1.40;;;12.70;89.60;;;;;;5023836;28;20506;-42
2021/11/01 04:14:21;;;;;;;1.87;1.20;;;12.70;89.60;;;;;;5027126;28;20461;-42
2021/11/01 04:16:53;;;;;;;1.90;1.20;;;12.70;89.70;;;;;;5027478;28;20467;-42
2021/11/01 04:19:33;;;;;;;4.00;1.27;;;12.70;89.70;;;;;;5023814;28;20963;-42
2021/11/01 04:21:59;;;;;;;1.80;1.40;;;12.70;89.70;;;;;;5025522;28;20493;-41
2021/11/01 04:24:30;;;;;;;2.90;1.10;;;12.80;89.00;;;;;;5006305;28;20470;-42
2021/11/01 04:26:58;;;;;;;2.60;1.23;;;12.80;89.10;;;;;;5025249;28;20490;-41
2021/11/01 04:29:27;;;;;;;1.97;1.10;;;12.80;89.20;;;;;;5025527;28;20498;-42
2021/11/01 04:32:03;;;;;;;4.07;1.63;;;12.80;88.60;;;;;;5027110;28;20803;-42
2021/11/01 04:34:33;;;;;;;2.53;1.37;;;12.80;88.50;;;;;;5005341;28;20455;-42
2021/11/01 04:37:01;;;;;;;3.03;1.47;;;12.70;88.90;;;;;;5027259;28;20489;-42
2021/11/01 04:45:11;;;;;;;3.00;1.30;;;12.60;89.60;;;;;;5023767;28;20471;-42
2021/11/01 04:53:06;;;;;;;3.13;1.80;;;12.70;89.40;;;;;;5028822;28;21213;-42
2021/11/01 04:55:34;;;;;;;2.63;1.50;;;12.70;89.40;;;;;;5028115;28;20878;-42
2021/11/01 04:58:02;;;;;;;2.90;2.00;;;12.70;89.50;;;;;;5018394;28;20463;-43
2021/11/01 05:00:29;;;;;;;2.90;1.83;;;12.60;89.60;;;;;;5005412;28;20489;-43
2021/11/01 05:03:04;;;;;;;6.77;1.50;;;12.60;89.60;;;;;;5007859;28;20463;-42
2021/11/01 05:05:32;;;;;;;3.13;1.63;;;12.60;89.60;;;;;;5026529;28;20504;-42
2021/11/01 05:08:00;;;;;;;1.53;1.40;;;12.60;89.70;;;;;;5023634;28;20486;-44
2021/11/01 05:10:34;;;;;;;2.10;1.57;;;12.50;89.80;;;;;;5025653;28;20514;-44
2021/11/01 05:13:16;;;;;;;4.33;1.97;;;12.60;89.70;;;;;;5025550;28;21097;-44
2021/11/01 05:16:04;;;;;;;2.93;1.73;;;12.50;89.70;;;;;;5008661;28;20454;-44
2021/11/01 05:23:51;;;;;;;2.20;2.03;;;12.50;89.70;;;;;;5022777;28;20457;-44
2021/11/01 05:29:06;;;;;;;2.83;2.30;;;12.50;89.80;;;;;;5027822;28;20518;-43
2021/11/01 05:31:42;;;;;;;3.23;2.03;;;12.50;89.80;;;;;;5039294;28;20459;-43
2021/11/01 05:34:17;;;;;;;8.30;2.33;;;12.50;89.80;;;;;;5038707;28;20522;-43
2021/11/01 05:36:44;;;;;;;5.33;2.00;;;12.50;89.80;;;;;;5042046;28;20458;-43
2021/11/01 05:39:12;;;;;;;3.13;1.80;;;12.50;89.70;;;;;;5039254;28;20458;-43
2021/11/01 05:41:39;;;;;;;3.17;1.90;;;12.50;89.80;;;;;;5037403;28;20484;-43
2021/11/01 05:44:07;;;;;;;6.53;1.97;;;12.50;89.70;;;;;;5048501;28;20463;-43
2021/11/01 05:46:36;;;;;;;3.13;1.97;;;12.50;89.80;;;;;;5038725;28;20460;-43
2021/11/01 05:49:05;;;;;;;2.67;1.50;;;12.50;89.80;;;;;;5043654;28;20464;-43
2021/11/01 05:51:34;;;;;;;5.33;1.80;;;12.50;89.80;;;;;;5036302;28;20451;-43
2021/11/01 05:54:06;;;;;;;4.77;3.40;;;12.50;89.80;;;;;;5035916;28;20526;-43
2021/11/01 05:56:52;;;;;;;2.93;1.60;;;12.40;89.80;;;;;;5042692;28;20551;-43
2021/11/01 06:14:54;;;;;;;4.50;2.00;;;12.40;89.60;;;;;;5027119;28;20458;-43
2021/11/01 06:17:21;;;;;;;4.53;1.70;;;12.40;89.40;;;;;;5022146;28;20465;-44
2021/11/01 06:19:48;;;;;;;4.40;2.00;;;12.40;89.40;;;;;;5010491;28;20448;-44
2021/11/01 06:22:15;;;;;;;8.27;3.80;;;12.40;89.40;;;;;;5008354;28;20482;-44
2021/11/01 06:27:13;;;;;;;5.10;2.87;;;12.40;89.50;;;;;;5020695;28;20455;-43
2021/11/01 06:40:55;;;;;;;8.87;2.93;;;12.40;89.30;;;;;;5017792;28;20847;-44
2021/11/01 06:57:15;;;;;;;3.70;2.10;;;12.30;89.20;;;;;;5032090;28;20456;-44
2021/11/01 07:21:36;;;;;;;4.50;2.10;;;12.20;89.10;;;;;;5031337;28;20478;-43
2021/11/01 07:25:00;;;;;;;6.43;2.47;;;12.20;89.00;;;;;;5030240;28;20456;-44
2021/11/01 08:46:17;;;;;;;9.07;3.93;;;12.40;88.40;;;;;;5010686;28;20962;-44
2021/11/01 09:13:10;;;;;;;7.30;3.43;;;12.60;87.50;;;;;;4947988;28;20471;-44
2021/11/01 09:26:33;;;;;;;7.47;2.40;;;12.60;87.50;;;;;;4996956;28;20482;-44
2021/11/01 09:42:54;;;;;;;7.00;2.83;;;12.70;86.70;;;;;;5022201;28;21003;-44
2021/11/01 09:45:25;;;;;;;6.57;2.60;;;12.70;86.60;;;;;;5022360;28;20563;-44
2021/11/01 09:47:53;;;;;;;4.90;2.23;;;12.70;86.50;;;;;;5025521;28;20899;-44
2021/11/01 09:50:22;;;;;;;5.20;2.30;;;12.70;86.50;;;;;;5020919;28;20983;-44
2021/11/01 09:52:58;;;;;;;9.60;2.50;;;12.70;86.40;;;;;;5020306;28;20444;-43
2021/11/01 10:01:12;;;;;;;5.47;2.10;;;12.90;86.30;;;;;;5018142;28;21012;-43
2021/11/01 10:03:42;;;;;;;7.93;2.60;;;12.90;85.70;;;;;;5006486;28;21080;-43
2021/11/01 10:06:16;;;;;;;6.27;2.47;;;12.90;85.70;;;;;;5008034;28;20451;-43
2021/11/01 10:08:53;;;;;;;9.40;2.60;;;12.90;85.60;;;;;;5025576;28;20443;-44
2021/11/01 10:11:30;;;;;;;7.93;2.37;;;13.00;85.80;;;;;;5026512;28;20467;-44
2021/11/01 10:14:02;;;;;;;8.97;2.63;;;13.10;85.60;;;;;;5029338;28;20451;-42
2021/11/01 10:19:33;;;;;;;7.40;2.33;;;13.20;84.70;;;;;;5034782;28;20464;-43
2021/11/01 10:22:06;;;;;;;10.37;2.77;;;13.30;84.70;;;;;;5038559;28;20863;-43
2021/11/01 10:24:39;;;;;;;7.10;2.10;;;13.40;84.50;;;;;;5037129;28;20459;-43
2021/11/01 10:27:15;;;;;;;6.13;2.13;;;13.50;82.90;;;;;;5037572;28;20476;-43
2021/11/01 10:30:02;;;;;;;6.80;2.10;;;13.60;82.60;;;;;;5018677;28;20485;-43
2021/11/01 10:32:34;;;;;;;5.97;2.07;;;13.60;82.80;;;;;;5021775;28;20462;-43
2021/11/01 10:35:22;;;;;;;6.43;2.73;;;13.60;82.90;;;;;;5024455;28;20533;-43
2021/11/01 10:38:19;;;;;;;8.73;3.10;;;13.60;82.30;;;;;;5041225;28;20519;-43
2021/11/01 10:41:04;;;;;;;5.63;1.87;;;13.70;79.40;;;;;;5037645;28;21040;-43
2021/11/01 11:19:28;;;;;;;4.77;2.57;;;13.70;79.20;;;;;;5040066;28;20456;-42
2021/11/01 11:47:39;;;;;;;6.70;2.33;;;13.80;79.60;;;;;;5039931;28;20455;-43
2021/11/01 11:50:11;;;;;;;4.07;2.37;;;13.80;79.30;;;;;;5006808;28;20982;-42
2021/11/01 11:52:38;;;;;;;4.80;2.83;;;13.80;79.10;;;;;;5037091;28;20491;-42
2021/11/01 11:55:14;;;;;;;7.70;2.87;;;13.80;79.30;;;;;;5042191;28;20595;-42
2021/11/01 11:57:43;;;;;;;5.30;2.63;;;13.80;79.70;;;;;;5020794;28;20850;-43
2021/11/01 12:00:16;;;;;;;10.33;2.80;;;13.80;79.40;;;;;;5042282;28;20451;-43
2021/11/01 12:02:46;;;;;;;7.87;1.67;;;13.90;79.20;;;;;;5037726;28;20546;-43
2021/11/01 12:05:30;;;;;;;9.83;2.67;;;14.00;78.70;;;;;;5009835;28;20460;-43
2021/11/01 12:08:02;;;;;;;3.57;1.63;;;14.00;78.40;;;;;;5031639;28;20957;-43
2021/11/01 12:18:35;;;;;;;5.00;2.20;;;14.00;78.10;;;;;;5029627;28;20448;-43
2021/11/01 12:21:02;;;;;;;5.90;2.40;;;14.00;78.30;;;;;;5039430;28;20462;-43
2021/11/01 12:23:40;;;;;;;6.03;2.77;;;13.90;79.00;;;;;;5035976;28;20524;-43
2021/11/01 12:26:11;;;;;;;8.73;2.40;;;13.90;81.10;;;;;;5021770;28;20455;-43
2021/11/01 12:28:41;;;;;;;6.50;2.00;;;13.80;82.90;;;;;;5039485;28;20554;-43
2021/11/01 12:31:10;;;;;;;4.60;2.63;;;13.80;82.90;;;;;;5039345;28;20457;-43
2021/11/01 12:33:40;;;;;;;5.53;1.97;;;13.80;83.10;;;;;;5039576;28;20448;-43
2021/11/01 12:36:09;;;;;;;5.43;2.53;;;13.80;83.10;;;;;;5037557;28;20446;-43
2021/11/01 12:38:48;;;;;;;4.60;2.17;;;13.80;83.40;;;;;;5038179;28;20843;-43
2021/11/01 12:41:51;;;;;;;4.27;1.87;;;13.80;83.80;;;;;;5036545;28;20506;-43
2021/11/01 12:45:16;;;;;;;3.00;1.43;;;13.80;83.80;;;;;;5039147;28;20482;-43
2021/11/01 12:47:48;;;;;;;4.80;1.70;;;13.80;83.70;;;;;;5035428;28;20519;-43
2021/11/01 12:58:52;;;;;;;4.67;1.87;;;13.80;83.90;;;;;;5039687;28;20436;-43
2021/11/01 13:01:19;;;;;;;4.60;2.00;;;13.90;83.60;;;;;;5016504;28;20467;-43
2021/11/01 13:03:57;;;;;;;4.40;2.53;;;13.90;83.40;;;;;;5038564;28;20484;-43
2021/11/01 13:06:42;;;;;;;3.53;2.03;;;14.00;83.10;;;;;;5036670;28;20978;-43
2021/11/01 13:09:14;;;;;;;3.90;2.00;;;13.90;83.30;;;;;;5035696;28;20448;-43
2021/11/01 13:11:58;;;;;;;5.33;2.30;;;14.00;83.50;;;;;;5039791;28;20987;-43
2021/11/01 13:19:52;;;;;;;2.23;1.30;;;13.80;78.50;;;;;;5038521;28;20455;-43
2021/11/01 13:22:25;;;;;;;2.50;1.10;;;13.70;78.60;;;;;;5037246;28;20450;-43
2021/11/01 13:38:50;;;;;;;2.20;0.80;;;13.50;79.90;;;;;;5034200;28;20459;-43
2021/11/01 13:41:30;;;;;;;2.00;0.90;;;13.40;79.40;;;;;;5038532;28;20451;-43
2021/11/01 13:44:10;;;;;;;1.17;0.87;;;13.40;79.80;;;;;;5037050;28;20482;-43
2021/11/01 13:46:45;;;;;;;0.80;0.77;;;13.40;80.00;;;;;;5037028;28;20451;-43
2021/11/01 13:49:16;;;;;;;0.97;0.60;;;13.40;80.00;;;;;;5038314;28;20520;-43
2021/11/01 13:51:50;;;;;;;3.20;2.13;;;13.50;79.00;;;;;;5037115;28;20444;-43
2021/11/01 13:56:51;;;;;;;1.80;0.90;;;13.40;78.40;;;;;;5036845;28;20593;-43
2021/11/01 14:02:14;;;;;;;3.90;0.70;;;13.40;77.80;;;;;;5042738;28;20455;-43
2021/11/01 14:13:14;;;;;;;0.70;0.70;;;13.20;78.10;;;;;;5032500;28;20446;-43
2021/11/01 14:18:47;;;;;;;1.00;0.67;;;13.20;78.40;;;;;;5040353;28;20519;-43
2021/11/01 14:30:08;;;;;;;2.10;0.80;;;13.30;79.80;;;;;;5040298;28;20971;-43
2021/11/01 14:35:49;;;;;;;0.40;0.30;;;13.50;78.10;;;;;;5023887;28;20459;-43
2021/11/01 15:08:46;;;;;;;6.87;3.90;;;13.40;77.40;;;;;;5028437;28;20454;-42
2021/11/01 15:21:39;;;;;;;2.17;1.00;;;13.10;77.30;;;;;;5028916;28;20479;-42
2021/11/01 15:27:03;;;;;;;1.13;0.93;;;13.00;78.30;;;;;;5028078;28;20540;-42
2021/11/01 15:35:10;;;;;;;1.10;1.00;;;12.90;78.60;;;;;;5030870;28;20448;-42
2021/11/01 16:18:37;;;;;;;4.73;1.37;;;12.30;81.60;;;;;;5009012;28;20522;-42
2021/11/01 16:21:06;;;;;;;3.17;1.63;;;12.30;81.70;;;;;;5026823;28;20444;-42
2021/11/01 16:26:11;;;;;;;3.03;1.00;;;12.20;81.90;;;;;;5025822;28;20460;-42
2021/11/01 16:28:39;;;;;;;1.50;1.40;;;12.20;82.00;;;;;;5023862;28;20776;-42
2021/11/01 16:33:45;;;;;;;3.23;1.90;;;12.10;82.20;;;;;;5023467;28;20868;-42
2021/11/01 16:36:40;;;;;;;2.20;1.93;;;12.10;82.20;;;;;;5026881;28;20797;-42
2021/11/01 16:39:11;;;;;;;7.57;2.37;;;12.10;82.20;;;;;;5028578;28;20470;-42
2021/11/01 16:41:41;;;;;;;4.87;2.63;;;12.10;82.20;;;;;;5028029;28;20468;-41
2021/11/01 16:44:21;;;;;;;3.50;2.87;;;12.10;82.20;;;;;;5018259;28;21029;-41
2021/11/01 16:46:51;;;;;;;4.10;2.07;;;12.00;82.40;;;;;;5024364;28;20451;-41
2021/11/01 16:49:20;;;;;;;4.93;2.70;;;12.00;82.40;;;;;;5029608;28;20509;-41
2021/11/01 16:51:49;;;;;;;3.40;1.90;;;11.90;82.40;;;;;;5027683;28;20455;-41
2021/11/01 16:54:20;;;;;;;2.97;2.03;;;11.90;82.60;;;;;;5023026;28;20445;-41
2021/11/01 16:57:16;;;;;;;4.93;1.60;;;11.80;82.60;;;;;;5027551;28;20819;-41
2021/11/01 18:39:46;;;;;;;7.23;3.67;;;10.90;84.00;;;;;;5026183;28;21059;-41
2021/11/01 18:45:16;;;;;;;3.50;3.23;;;10.80;84.00;;;;;;5020779;28;20491;-41
2021/11/01 18:51:27;;;;;;;4.40;3.30;;;10.80;83.70;;;;;;5029103;28;20470;-42
2021/11/01 18:53:43;;;;;;;3.60;2.90;;;10.70;83.80;;;;;;5018468;28;20455;-41
2021/11/01 18:56:12;;;;;;;4.57;3.10;;;10.60;83.80;;;;;;5030258;28;20546;-41
2021/11/01 18:58:41;;;;;;;5.17;3.77;;;10.60;83.90;;;;;;5028152;28;20550;-42
2021/11/01 19:01:12;;;;;;;5.27;3.37;;;10.60;83.90;;;;;;5023826;28;20450;-42
2021/11/01 19:03:43;;;;;;;3.07;2.77;;;10.50;83.90;;;;;;5028686;28;20466;-42
2021/11/01 19:06:40;;;;;;;5.80;3.47;;;10.50;84.00;;;;;;5025002;28;20976;-42
2021/11/01 19:09:21;;;;;;;4.40;3.70;;;10.50;84.00;;;;;;5025655;28;20538;-42
2021/11/01 21:26:21;;;;;;;13.73;10.40;;;9.30;85.90;;;;;;5023894;28;20487;-41
2021/11/01 21:28:52;;;;;;;10.53;8.70;;;9.30;85.90;;;;;;5031408;28;20550;-41
2021/11/01 21:31:20;;;;;;;15.67;10.70;;;9.30;86.20;;;;;;5025587;28;20522;-42
2021/11/01 21:33:51;;;;;;;11.40;10.03;;;9.30;86.20;;;;;;5028568;28;20455;-41
2021/11/01 21:36:25;;;;;;;10.63;8.07;;;9.30;86.20;;;;;;5018956;28;20467;-42
2021/11/01 21:38:54;;;;;;;11.67;10.43;;;9.20;86.30;;;;;;5009064;28;20559;-41
2021/11/01 21:41:24;;;;;;;10.83;9.77;;;9.20;86.30;;;;;;5026730;28;20798;-41
2021/11/01 21:43:52;;;;;;;12.00;10.77;;;9.30;86.20;;;;;;5023817;28;20460;-41
2021/11/01 21:46:20;;;;;;;11.90;9.40;;;9.30;86.20;;;;;;5021299;28;20587;-41
2021/11/01 21:48:47;;;;;;;11.40;10.30;;;9.30;86.30;;;;;;5029715;28;20526;-42
2021/11/01 21:51:14;;;;;;;12.60;10.27;;;9.30;86.10;;;;;;5026281;28;20486;-41
2021/11/01 21:53:47;;;;;;;11.43;10.23;;;9.30;85.90;;;;;;5022090;28;20455;-41
2021/11/01 21:56:17;;;;;;;11.20;10.10;;;9.20;85.90;;;;;;5026888;28;20881;-41
2021/11/01 22:17:39;;;;;;;6.07;5.43;;;9.00;85.00;;;;;;5024417;28;20525;-43
2021/11/01 22:20:25;;;;;;;7.03;5.43;;;8.90;85.00;;;;;;5041315;28;20464;-43
2021/11/01 22:23:01;;;;;;;6.10;5.47;;;8.90;84.90;;;;;;5046733;28;20539;-43
2021/11/01 22:25:35;;;;;;;6.00;5.40;;;8.80;85.00;;;;;;5043754;28;20498;-43
2021/11/01 22:33:42;;;;;;;6.30;4.90;;;8.80;84.80;;;;;;5045198;28;20451;-42
2021/11/01 22:57:46;;;;;;;12.63;11.63;;;8.50;85.40;;;;;;5014477;28;21037;-46
2021/11/01 23:00:19;;;;;;;17.67;16.17;;;8.50;85.70;;;;;;5014597;28;20487;-43
2021/11/01 23:02:49;;;;;;;13.10;11.90;;;8.50;85.90;;;;;;5032926;28;20440;-40
2021/11/01 23:32:46;;;;;;;6.50;5.83;;;8.40;85.80;;;;;;5028900;28;20458;-41
2021/11/01 23:35:13;;;;;;;9.03;5.93;;;8.40;85.80;;;;;;5003278;28;20452;-41
2021/11/01 23:37:39;;;;;;;7.57;5.60;;;8.40;85.60;;;;;;5031111;28;20737;-42
2021/11/01 23:40:07;;;;;;;9.47;7.20;;;8.30;85.70;;;;;;5029161;28;20447;-43
2021/11/01 23:42:33;;;;;;;7.53;6.53;;;8.30;85.90;;;;;;5026943;28;20640;-44
2021/11/01 23:45:00;;;;;;;8.30;7.47;;;8.30;85.90;;;;;;5028596;28;20539;-43
2021/11/01 23:47:27;;;;;;;9.53;7.43;;;8.20;86.00;;;;;;5025508;28;20505;-44
2021/11/01 23:49:54;;;;;;;16.53;10.20;;;8.20;86.10;;;;;;5028615;28;20470;-43
2021/11/01 23:52:22;;;;;;;13.47;9.50;;;8.20;86.10;;;;;;5024635;28;20470;-43
2021/11/01 23:54:49;;;;;;;8.93;8.10;;;8.20;86.10;;;;;;5004726;28;20449;-43
2021/11/01 23:57:19;;;;;;;12.40;7.50;;;8.20;86.00;;;;;;5010150;28;20462;-43
2021/11/01 23:59:48;;;;;;;9.97;7.87;;;8.20;86.00;;;;;;5011070;28;20512;-43
